Terminal Aerodrome Forecast
Issued by NWS

Current Version | Previous Version | Text Only | Print | Product List | Glossary On
Versions: 1 2 3 4 5 6 7 8 9 10 11 12 13 14 15 16 17 18 19 20 21 22 23 24 25
000
FTUS46 KLOX 201138
TAFPRB
TAF
KPRB 201138Z 2012/2112 VRB05KT 6SM -RA BR SCT006 BKN015 OVC025
     FM201500 17015KT 4SM RA BR OVC008
     FM202000 19015KT 5SM -RA BR OVC015
     FM210400 14005KT 6SM -RA BR OVC025
     FM210900 VRB05KT 4SM -RA BR OVC010=

USA.gov is the U.S. government's official web portal to all federal, state and local government web resources and services.